Time;durP1;ratioP1;P1;durP2;ratioP2;P2;SDS_P1;SDS_P2;PMS_P1;PMS_P2;Temp;Humidity;BMP_temperature;BMP_pressure;BME280_temperature;BME280_humidity;BME280_pressure;Samples;Min_cycle;Max_cycle;Signal;HPM_P1;HPM_P2
2021/11/13 00:02:18;;;;;;;17.13;13.60;;;3.00;99.90;;;;;;5101344;28;20186;-86
2021/11/13 00:04:44;;;;;;;18.53;13.57;;;3.10;99.90;;;;;;5108147;28;20194;-86
2021/11/13 00:07:10;;;;;;;17.43;12.80;;;2.90;99.90;;;;;;5107721;28;20210;-87
2021/11/13 00:09:36;;;;;;;19.23;12.43;;;2.90;99.90;;;;;;5095994;28;20201;-87
2021/11/13 00:12:02;;;;;;;25.93;13.33;;;3.00;99.90;;;;;;5093553;28;20724;-87
2021/11/13 00:14:29;;;;;;;16.50;12.97;;;3.00;99.90;;;;;;5097080;28;20642;-87
2021/11/13 00:16:56;;;;;;;21.07;12.67;;;3.00;99.90;;;;;;5095217;28;20221;-85
2021/11/13 00:19:22;;;;;;;18.87;13.47;;;3.10;99.90;;;;;;5094024;28;20186;-85
2021/11/13 00:21:48;;;;;;;21.03;13.70;;;3.00;99.90;;;;;;5098586;28;20559;-85
2021/11/13 00:24:13;;;;;;;19.30;13.50;;;2.90;99.90;;;;;;5096933;28;20187;-86
2021/11/13 00:26:39;;;;;;;21.97;13.43;;;3.00;99.90;;;;;;5098862;28;20568;-86
2021/11/13 00:29:05;;;;;;;22.80;13.67;;;3.10;99.90;;;;;;5099058;28;20211;-86
2021/11/13 00:31:32;;;;;;;22.23;13.97;;;3.00;99.90;;;;;;5096203;28;20179;-86
2021/11/13 00:33:58;;;;;;;19.17;13.57;;;3.00;99.90;;;;;;5098247;28;20187;-86
2021/11/13 00:36:24;;;;;;;17.83;14.03;;;3.00;99.90;;;;;;5097952;28;20191;-86
2021/11/13 00:38:50;;;;;;;33.73;15.43;;;3.10;99.90;;;;;;5096782;28;20207;-86
2021/11/13 00:41:17;;;;;;;42.77;15.23;;;3.10;99.90;;;;;;5099483;28;20183;-86
2021/11/13 00:43:42;;;;;;;29.33;14.97;;;3.00;99.90;;;;;;5100900;28;20197;-86
2021/11/13 00:46:08;;;;;;;36.20;15.53;;;3.10;99.90;;;;;;5102054;28;20233;-87
2021/11/13 00:48:34;;;;;;;40.00;16.00;;;3.00;99.90;;;;;;5091240;28;20241;-86
2021/11/13 00:51:00;;;;;;;24.50;15.03;;;2.90;99.90;;;;;;5094643;28;20198;-86
2021/11/13 00:53:26;;;;;;;30.67;15.00;;;2.90;99.90;;;;;;5103185;28;20282;-85
2021/11/13 00:55:51;;;;;;;26.63;15.17;;;2.90;99.90;;;;;;5107135;28;20206;-87
2021/11/13 00:58:17;;;;;;;27.57;15.27;;;3.00;99.90;;;;;;5106656;28;20219;-86
2021/11/13 01:00:43;;;;;;;39.50;15.93;;;3.00;99.90;;;;;;5109297;28;20202;-86
2021/11/13 01:03:10;;;;;;;29.53;15.30;;;2.90;99.90;;;;;;5102923;28;20186;-85
2021/11/13 01:05:36;;;;;;;28.40;15.67;;;2.90;99.90;;;;;;5104226;28;20207;-85
2021/11/13 01:08:02;;;;;;;33.60;15.93;;;2.90;99.90;;;;;;5099423;28;20231;-86
2021/11/13 01:10:28;;;;;;;38.80;15.50;;;2.90;99.90;;;;;;5096712;28;20238;-85
2021/11/13 01:12:54;;;;;;;34.60;15.43;;;2.80;99.90;;;;;;5093299;28;20709;-86
2021/11/13 01:15:21;;;;;;;29.23;15.07;;;2.90;99.90;;;;;;5090369;28;20230;-85
2021/11/13 01:17:48;;;;;;;37.53;16.57;;;2.80;99.90;;;;;;5092394;28;20222;-85
2021/11/13 01:20:16;;;;;;;30.43;15.93;;;2.80;99.90;;;;;;5090885;28;20528;-84
2021/11/13 01:22:42;;;;;;;35.87;16.13;;;2.80;99.90;;;;;;5100045;28;20786;-85
2021/11/13 01:25:09;;;;;;;30.67;15.87;;;2.70;99.90;;;;;;5108711;28;20246;-85
2021/11/13 01:27:35;;;;;;;39.67;16.47;;;2.70;99.90;;;;;;5103316;28;20203;-85
2021/11/13 01:30:03;;;;;;;37.43;15.40;;;2.60;99.90;;;;;;5110289;28;20167;-86
2021/11/13 01:32:28;;;;;;;32.33;15.40;;;2.70;99.90;;;;;;5103166;28;20186;-86
2021/11/13 01:34:54;;;;;;;21.97;14.43;;;2.70;99.90;;;;;;5088903;28;20219;-85
2021/11/13 01:37:20;;;;;;;27.83;15.40;;;2.70;99.90;;;;;;5087284;28;20214;-86
2021/11/13 01:39:46;;;;;;;39.67;15.77;;;2.80;99.90;;;;;;5088724;28;20199;-85
2021/11/13 01:42:11;;;;;;;52.63;17.17;;;2.80;99.90;;;;;;5092110;28;20217;-86
2021/11/13 01:44:37;;;;;;;34.50;16.57;;;2.70;99.90;;;;;;5088514;28;20216;-86
2021/11/13 01:47:04;;;;;;;38.03;15.90;;;2.60;99.90;;;;;;5090570;28;20222;-86
2021/11/13 01:49:30;;;;;;;36.30;16.27;;;2.70;99.90;;;;;;5091304;28;20187;-85
2021/11/13 01:51:56;;;;;;;30.43;15.33;;;2.70;99.90;;;;;;5086328;28;20561;-85
2021/11/13 01:54:23;;;;;;;46.63;15.13;;;2.80;99.90;;;;;;5089024;28;20681;-86
2021/11/13 01:56:51;;;;;;;35.80;15.47;;;2.80;99.90;;;;;;5095985;28;20208;-86
2021/11/13 01:59:19;;;;;;;28.50;15.03;;;2.70;99.90;;;;;;5102303;28;20187;-85
2021/11/13 02:01:44;;;;;;;32.13;15.30;;;2.70;99.90;;;;;;5105940;28;20194;-87
2021/11/13 02:04:11;;;;;;;28.67;14.80;;;2.80;99.90;;;;;;5098671;28;20651;-86
2021/11/13 02:06:36;;;;;;;41.77;15.63;;;2.80;99.90;;;;;;5093811;28;20183;-84
2021/11/13 02:09:06;;;;;;;30.03;16.30;;;2.70;99.90;;;;;;5091981;28;20206;-86
2021/11/13 02:11:32;;;;;;;32.10;14.37;;;2.80;99.90;;;;;;5097917;28;20206;-86
2021/11/13 02:13:59;;;;;;;34.63;15.63;;;2.80;99.90;;;;;;5099181;28;20273;-86
2021/11/13 02:16:25;;;;;;;36.97;15.90;;;2.70;99.90;;;;;;5094631;28;20546;-85
2021/11/13 02:18:52;;;;;;;36.30;15.37;;;2.80;99.90;;;;;;5093963;28;20305;-86
2021/11/13 02:21:18;;;;;;;21.13;14.73;;;2.80;99.90;;;;;;5099343;28;20201;-85
2021/11/13 02:23:44;;;;;;;30.53;15.30;;;2.90;99.90;;;;;;5098044;28;20195;-86
2021/11/13 02:26:11;;;;;;;24.87;14.60;;;2.80;99.90;;;;;;5093402;28;20209;-86
2021/11/13 02:28:37;;;;;;;32.50;13.30;;;2.80;99.90;;;;;;5097758;28;20222;-86
2021/11/13 02:31:07;;;;;;;23.03;14.27;;;2.80;99.90;;;;;;5098802;28;20191;-86
2021/11/13 02:33:35;;;;;;;29.53;14.50;;;2.80;99.90;;;;;;5093888;28;20226;-86
2021/11/13 02:36:02;;;;;;;32.20;14.13;;;2.80;99.90;;;;;;5100486;28;20282;-86
2021/11/13 02:38:36;;;;;;;30.63;14.13;;;2.70;99.90;;;;;;5097729;28;20218;-85
2021/11/13 02:41:05;;;;;;;23.23;14.57;;;2.70;99.90;;;;;;5095057;28;20578;-85
2021/11/13 02:43:32;;;;;;;18.33;12.70;;;2.70;99.90;;;;;;5093371;28;20195;-85
2021/11/13 02:46:00;;;;;;;17.53;13.17;;;2.70;99.90;;;;;;5094695;28;20234;-83
2021/11/13 02:48:29;;;;;;;16.40;12.33;;;2.70;99.90;;;;;;5098396;28;20304;-86
2021/11/13 02:50:55;;;;;;;17.70;12.00;;;2.80;99.90;;;;;;5095168;28;20190;-86
2021/11/13 02:53:24;;;;;;;17.13;11.97;;;2.80;99.90;;;;;;5096974;28;20183;-86
2021/11/13 02:55:52;;;;;;;15.53;12.87;;;2.70;99.90;;;;;;5098734;28;20191;-86
2021/11/13 02:58:22;;;;;;;17.77;12.23;;;2.70;99.90;;;;;;5097343;28;20273;-86
2021/11/13 03:00:51;;;;;;;16.77;13.07;;;2.70;99.90;;;;;;5096123;28;20198;-87
2021/11/13 03:03:19;;;;;;;20.10;12.23;;;2.70;99.90;;;;;;5098408;28;20187;-85
2021/11/13 03:05:53;;;;;;;15.43;11.07;;;2.80;99.90;;;;;;5096517;28;20186;-87
2021/11/13 03:08:22;;;;;;;14.80;11.43;;;2.80;99.90;;;;;;5095312;28;20235;-86
2021/11/13 03:10:49;;;;;;;16.13;11.80;;;2.80;99.90;;;;;;5096504;28;20224;-86
2021/11/13 03:13:15;;;;;;;16.13;11.77;;;2.90;99.90;;;;;;5084865;28;20192;-86
2021/11/13 03:15:40;;;;;;;16.07;12.27;;;2.90;99.90;;;;;;5094651;28;20202;-86
2021/11/13 03:18:06;;;;;;;15.63;12.30;;;2.80;99.90;;;;;;5095655;28;20287;-86
2021/11/13 03:20:32;;;;;;;17.40;12.13;;;2.80;99.90;;;;;;5097777;28;20179;-86
2021/11/13 03:23:00;;;;;;;17.37;12.70;;;2.80;99.90;;;;;;5092367;28;20257;-86
2021/11/13 03:25:31;;;;;;;28.13;12.80;;;2.80;99.90;;;;;;5095333;28;20194;-85
2021/11/13 03:28:00;;;;;;;17.23;11.83;;;2.70;99.90;;;;;;5092648;28;22256;-86
2021/11/13 03:30:26;;;;;;;17.80;12.93;;;2.80;99.90;;;;;;5096128;28;20252;-86
2021/11/13 03:32:53;;;;;;;17.13;13.30;;;2.80;99.90;;;;;;5096539;28;20214;-85
2021/11/13 03:35:27;;;;;;;32.20;13.93;;;3.00;99.90;;;;;;5098318;28;20236;-86
2021/11/13 03:37:58;;;;;;;20.67;13.40;;;2.90;99.90;;;;;;5098752;28;20211;-86
2021/11/13 03:40:24;;;;;;;19.47;15.20;;;2.80;99.90;;;;;;5092524;28;20663;-86
2021/11/13 03:42:50;;;;;;;23.27;13.93;;;2.90;99.90;;;;;;5093115;28;20188;-85
2021/11/13 03:45:17;;;;;;;41.20;15.33;;;2.80;99.90;;;;;;5080810;28;20243;-86
2021/11/13 03:47:42;;;;;;;27.80;15.77;;;2.80;99.90;;;;;;5086562;28;20214;-86
2021/11/13 03:50:09;;;;;;;27.70;15.30;;;2.80;99.90;;;;;;5087029;28;20265;-86
2021/11/13 03:52:34;;;;;;;21.83;15.50;;;2.80;99.90;;;;;;5093208;28;20336;-86
2021/11/13 03:55:00;;;;;;;21.93;15.17;;;2.80;99.90;;;;;;5091413;28;20221;-86
2021/11/13 03:57:26;;;;;;;21.90;15.53;;;2.80;99.90;;;;;;5085164;28;20245;-86
2021/11/13 03:59:54;;;;;;;29.37;16.17;;;2.80;99.90;;;;;;5090979;28;20240;-86
2021/11/13 04:02:19;;;;;;;29.83;16.30;;;2.80;99.90;;;;;;5092355;28;20180;-87
2021/11/13 04:04:45;;;;;;;28.70;15.77;;;2.80;99.90;;;;;;5087924;28;20191;-86
2021/11/13 04:07:12;;;;;;;27.57;16.73;;;2.90;99.90;;;;;;5089533;28;20238;-86
2021/11/13 04:09:39;;;;;;;35.63;17.37;;;2.80;99.90;;;;;;5093532;28;20612;-86
2021/11/13 04:12:06;;;;;;;37.20;16.60;;;2.70;99.90;;;;;;5088647;28;20212;-86
2021/11/13 04:14:36;;;;;;;29.23;16.30;;;2.80;99.90;;;;;;5086273;28;20202;-86
2021/11/13 04:17:03;;;;;;;21.60;15.17;;;2.90;99.90;;;;;;5091499;28;20221;-86
2021/11/13 04:19:29;;;;;;;38.30;16.07;;;2.90;99.90;;;;;;5090536;28;20191;-86
2021/11/13 04:21:55;;;;;;;23.90;15.30;;;3.00;99.90;;;;;;5091122;28;20187;-86
2021/11/13 04:24:21;;;;;;;31.00;16.13;;;2.90;99.90;;;;;;5092140;28;20183;-86
2021/11/13 04:26:47;;;;;;;25.33;15.70;;;2.90;99.90;;;;;;5090466;28;20204;-86
2021/11/13 04:29:13;;;;;;;32.73;16.10;;;2.90;99.90;;;;;;5093545;28;20218;-86
2021/11/13 04:31:38;;;;;;;23.80;15.00;;;3.00;99.90;;;;;;5086830;28;20852;-86
2021/11/13 04:34:08;;;;;;;21.77;15.57;;;3.00;99.90;;;;;;5090174;28;20254;-86
2021/11/13 04:36:38;;;;;;;24.97;15.23;;;3.10;99.90;;;;;;5086675;28;20240;-86
2021/11/13 04:39:08;;;;;;;26.70;15.77;;;3.10;99.90;;;;;;5086260;28;20215;-86
2021/11/13 04:41:35;;;;;;;26.30;15.00;;;3.10;99.90;;;;;;5098002;28;20421;-86
2021/11/13 04:44:01;;;;;;;23.50;14.50;;;3.00;99.90;;;;;;5104624;28;20186;-86
2021/11/13 04:46:27;;;;;;;42.70;16.33;;;3.10;99.90;;;;;;5108354;28;20205;-86
2021/11/13 04:48:53;;;;;;;27.20;15.97;;;3.00;99.90;;;;;;5104786;28;20225;-86
2021/11/13 04:51:19;;;;;;;24.57;16.23;;;3.00;99.90;;;;;;5093010;28;20195;-86
2021/11/13 04:53:44;;;;;;;23.43;15.50;;;3.00;99.90;;;;;;5088250;28;20214;-86
2021/11/13 04:56:10;;;;;;;22.30;15.37;;;3.00;99.90;;;;;;5087474;28;20199;-86
2021/11/13 04:58:37;;;;;;;31.10;16.27;;;3.00;99.90;;;;;;5090580;28;20215;-86
2021/11/13 05:01:04;;;;;;;27.20;17.00;;;3.00;99.90;;;;;;5087864;28;20190;-86
2021/11/13 05:03:30;;;;;;;28.13;16.40;;;3.00;99.90;;;;;;5084483;28;20248;-86
2021/11/13 05:05:57;;;;;;;32.57;16.67;;;3.00;99.90;;;;;;5085952;28;20570;-86
2021/11/13 05:08:23;;;;;;;21.23;16.80;;;3.00;99.90;;;;;;5084423;28;20272;-86
2021/11/13 05:10:50;;;;;;;27.73;15.60;;;3.10;99.90;;;;;;5084559;28;20196;-86
2021/11/13 05:13:17;;;;;;;24.83;16.20;;;3.10;99.90;;;;;;5091106;28;20191;-87
2021/11/13 05:15:43;;;;;;;21.80;15.23;;;3.00;99.90;;;;;;5087076;28;20210;-87
2021/11/13 05:18:09;;;;;;;23.23;15.17;;;3.10;99.90;;;;;;5088821;28;20210;-87
2021/11/13 05:20:34;;;;;;;22.50;15.77;;;3.20;99.90;;;;;;5089796;28;20191;-87
2021/11/13 05:23:00;;;;;;;21.73;16.40;;;3.20;99.90;;;;;;5093972;28;20661;-86
2021/11/13 05:25:26;;;;;;;22.53;16.37;;;3.20;99.90;;;;;;5091513;28;20206;-87
2021/11/13 05:27:52;;;;;;;23.83;16.43;;;3.30;99.90;;;;;;5090267;28;20212;-87
2021/11/13 05:30:21;;;;;;;20.80;15.50;;;3.10;99.90;;;;;;5095033;28;20232;-87
2021/11/13 05:32:47;;;;;;;21.33;15.53;;;3.20;99.90;;;;;;5093987;28;20194;-87
2021/11/13 05:35:13;;;;;;;21.83;16.63;;;3.10;99.90;;;;;;5102695;28;20233;-86
2021/11/13 05:37:40;;;;;;;23.33;16.70;;;3.10;99.90;;;;;;5108374;28;20230;-87
2021/11/13 05:40:07;;;;;;;20.00;16.33;;;3.10;99.90;;;;;;5103687;28;20186;-86
2021/11/13 05:42:34;;;;;;;19.77;15.67;;;3.10;99.90;;;;;;5094164;28;20191;-87
2021/11/13 05:45:01;;;;;;;24.17;16.83;;;3.10;99.90;;;;;;5092548;28;20266;-86
2021/11/13 05:47:27;;;;;;;18.13;15.20;;;3.10;99.90;;;;;;5097952;28;20210;-86
2021/11/13 05:49:53;;;;;;;21.43;15.10;;;3.10;99.90;;;;;;5089701;28;20223;-86
2021/11/13 05:52:19;;;;;;;17.93;14.80;;;3.20;99.90;;;;;;5092667;28;20194;-87
2021/11/13 05:54:45;;;;;;;16.53;14.17;;;3.20;99.90;;;;;;5097032;28;20712;-86
2021/11/13 05:57:11;;;;;;;18.63;14.43;;;3.10;99.90;;;;;;5091748;28;20276;-86
2021/11/13 05:59:38;;;;;;;16.73;13.67;;;3.20;99.90;;;;;;5091962;28;20230;-87
2021/11/13 06:02:04;;;;;;;19.37;14.27;;;3.20;99.90;;;;;;5092307;28;20207;-87
2021/11/13 06:04:30;;;;;;;18.67;14.37;;;3.20;99.90;;;;;;5099989;28;20872;-87
2021/11/13 06:06:56;;;;;;;20.17;14.27;;;3.30;99.90;;;;;;5090776;28;20210;-87
2021/11/13 06:09:21;;;;;;;19.33;15.37;;;3.20;99.90;;;;;;5092811;28;20262;-87
2021/11/13 06:11:47;;;;;;;19.03;13.53;;;3.30;99.90;;;;;;5093265;28;20735;-86
2021/11/13 06:14:13;;;;;;;18.17;14.60;;;3.30;99.90;;;;;;5092763;28;20191;-86
2021/11/13 06:16:39;;;;;;;19.93;15.37;;;3.30;99.90;;;;;;5090359;28;20222;-86
2021/11/13 06:19:04;;;;;;;19.57;14.27;;;3.30;99.90;;;;;;5095799;28;20218;-87
2021/11/13 06:21:30;;;;;;;19.20;15.33;;;3.30;99.90;;;;;;5090307;28;20709;-87
2021/11/13 06:23:56;;;;;;;19.93;14.77;;;3.30;99.90;;;;;;5090869;28;20282;-87
2021/11/13 06:26:22;;;;;;;18.60;14.80;;;3.40;99.90;;;;;;5094017;28;20190;-87
2021/11/13 06:28:48;;;;;;;20.23;15.03;;;3.40;99.90;;;;;;5090366;28;20358;-87
2021/11/13 06:31:14;;;;;;;18.83;14.63;;;3.40;99.90;;;;;;5091560;28;20214;-87
2021/11/13 06:33:40;;;;;;;19.07;14.63;;;3.40;99.90;;;;;;5094896;28;20191;-87
2021/11/13 06:36:06;;;;;;;18.43;15.03;;;3.50;99.90;;;;;;5089275;28;20191;-87
2021/11/13 06:38:33;;;;;;;19.87;14.77;;;3.50;99.90;;;;;;5088011;28;20225;-87
2021/11/13 06:40:59;;;;;;;21.73;15.77;;;3.50;99.90;;;;;;5092302;28;20188;-87
2021/11/13 06:43:24;;;;;;;19.57;15.53;;;3.50;99.90;;;;;;5093630;28;20263;-87
2021/11/13 06:45:50;;;;;;;18.73;16.30;;;3.50;99.90;;;;;;5074972;28;20521;-87
2021/11/13 06:48:17;;;;;;;23.27;16.57;;;3.60;99.90;;;;;;5092073;28;20203;-87
2021/11/13 06:50:46;;;;;;;18.20;15.53;;;3.60;99.90;;;;;;5094954;28;20225;-87
2021/11/13 06:53:11;;;;;;;20.67;14.70;;;3.50;99.90;;;;;;5090970;28;20670;-86
2021/11/13 06:55:37;;;;;;;22.07;15.93;;;3.60;99.90;;;;;;5090697;28;20193;-87
2021/11/13 06:58:03;;;;;;;19.03;15.77;;;3.60;99.90;;;;;;5092909;28;20242;-87
2021/11/13 07:00:29;;;;;;;18.73;15.60;;;3.70;99.90;;;;;;5092448;28;20182;-87
2021/11/13 07:02:59;;;;;;;18.93;15.30;;;3.80;99.90;;;;;;5089709;28;20214;-87
2021/11/13 07:05:26;;;;;;;19.47;14.90;;;3.90;99.90;;;;;;5080109;28;20211;-87
2021/11/13 07:07:53;;;;;;;21.40;15.60;;;3.90;99.90;;;;;;5099119;28;20208;-87
2021/11/13 07:10:20;;;;;;;19.73;14.73;;;3.90;99.90;;;;;;5097044;28;20198;-87
2021/11/13 07:12:46;;;;;;;17.13;14.13;;;4.00;99.90;;;;;;5096762;28;20251;-87
2021/11/13 07:15:14;;;;;;;18.13;14.50;;;4.10;99.90;;;;;;5098541;28;20194;-86
2021/11/13 07:17:40;;;;;;;18.60;14.27;;;4.30;99.90;;;;;;5098986;28;20218;-86
2021/11/13 07:20:06;;;;;;;15.60;13.03;;;4.40;99.90;;;;;;5097066;28;20194;-87
2021/11/13 07:22:32;;;;;;;17.83;15.33;;;4.40;99.90;;;;;;5093038;28;20195;-87
2021/11/13 07:24:58;;;;;;;19.43;14.53;;;4.20;99.90;;;;;;5083894;28;20187;-87
2021/11/13 07:27:25;;;;;;;21.57;16.33;;;4.30;99.90;;;;;;5096862;28;20214;-87
2021/11/13 07:30:04;;;;;;;20.37;16.63;;;4.10;99.90;;;;;;5097238;28;20193;-87
2021/11/13 07:32:30;;;;;;;18.97;15.43;;;4.10;99.90;;;;;;5099166;28;20206;-87
2021/11/13 07:34:57;;;;;;;20.90;17.17;;;4.00;99.90;;;;;;5082685;28;20182;-86
2021/11/13 07:37:24;;;;;;;21.13;16.80;;;3.90;99.90;;;;;;5098260;28;20211;-87
2021/11/13 07:39:52;;;;;;;22.53;18.23;;;3.90;99.90;;;;;;5097240;28;20171;-88
2021/11/13 07:42:18;;;;;;;28.67;20.30;;;3.90;99.90;;;;;;5082782;28;20258;-87
2021/11/13 07:44:43;;;;;;;26.67;20.47;;;3.90;99.90;;;;;;5082996;28;20613;-87
2021/11/13 07:47:09;;;;;;;27.00;19.20;;;3.90;99.90;;;;;;5098341;28;20211;-87
2021/11/13 07:49:35;;;;;;;25.77;18.87;;;4.00;99.90;;;;;;5101209;28;20179;-87
2021/11/13 07:52:02;;;;;;;23.47;17.80;;;4.20;99.90;;;;;;5093255;28;20202;-87
2021/11/13 07:54:27;;;;;;;22.03;16.73;;;4.20;99.90;;;;;;5090433;28;20213;-87
2021/11/13 07:56:54;;;;;;;23.17;18.70;;;4.20;99.90;;;;;;5094666;28;20663;-87
2021/11/13 07:59:19;;;;;;;20.27;16.10;;;4.10;99.90;;;;;;5084714;28;20686;-87
2021/11/13 08:01:45;;;;;;;21.93;16.53;;;4.10;99.90;;;;;;5081608;28;20224;-87
2021/11/13 08:04:11;;;;;;;22.67;16.73;;;4.20;99.90;;;;;;5093528;28;20287;-87
2021/11/13 08:06:37;;;;;;;21.30;16.53;;;4.30;99.90;;;;;;5080510;28;20281;-87
2021/11/13 08:09:03;;;;;;;19.17;15.77;;;4.20;99.90;;;;;;5096520;28;20241;-87
2021/11/13 08:11:29;;;;;;;20.97;16.40;;;4.30;99.90;;;;;;5096651;28;20745;-86
2021/11/13 08:13:55;;;;;;;20.63;16.53;;;4.30;99.90;;;;;;5080372;28;20218;-87
2021/11/13 08:16:21;;;;;;;21.53;16.73;;;4.40;99.90;;;;;;5097997;28;20207;-87
2021/11/13 08:18:47;;;;;;;20.17;15.70;;;4.60;99.90;;;;;;5096528;28;20230;-87
2021/11/13 08:21:13;;;;;;;21.03;16.13;;;4.70;99.90;;;;;;5099045;28;20198;-87
2021/11/13 08:23:39;;;;;;;20.20;15.80;;;4.80;99.90;;;;;;5095967;28;20171;-87
2021/11/13 08:26:05;;;;;;;21.03;17.07;;;4.90;99.90;;;;;;5091767;28;20187;-86
2021/11/13 08:28:31;;;;;;;17.93;15.80;;;5.00;99.90;;;;;;5092839;28;20222;-87
2021/11/13 08:31:00;;;;;;;20.10;17.23;;;5.00;99.90;;;;;;5100964;28;20191;-87
2021/11/13 08:33:28;;;;;;;19.97;16.67;;;5.10;99.90;;;;;;5110512;28;20191;-87
2021/11/13 08:35:55;;;;;;;18.53;16.53;;;5.10;99.90;;;;;;5094751;28;20210;-87
2021/11/13 08:38:22;;;;;;;23.33;17.67;;;5.10;99.90;;;;;;5096709;28;20207;-86
2021/11/13 08:40:50;;;;;;;23.40;18.03;;;5.00;99.90;;;;;;5097249;28;20195;-87
2021/11/13 08:43:18;;;;;;;21.47;18.57;;;5.10;99.90;;;;;;5091232;28;20183;-87
2021/11/13 08:45:44;;;;;;;20.33;18.17;;;5.20;99.90;;;;;;5099743;28;20219;-87
2021/11/13 08:48:11;;;;;;;23.27;17.93;;;5.20;99.90;;;;;;5094848;28;20208;-87
2021/11/13 08:50:37;;;;;;;22.90;18.47;;;5.20;99.90;;;;;;5081892;28;20219;-86
2021/11/13 08:53:05;;;;;;;20.40;16.43;;;5.40;99.90;;;;;;5097566;28;20246;-86
2021/11/13 08:55:34;;;;;;;20.67;17.00;;;5.50;99.90;;;;;;5096556;28;20187;-87
2021/11/13 08:58:04;;;;;;;23.40;18.60;;;5.50;99.90;;;;;;5109021;28;20237;-87
2021/11/13 09:00:53;;;;;;;21.53;17.50;;;5.60;99.90;;;;;;5107330;28;20213;-87
2021/11/13 09:03:24;;;;;;;25.33;18.40;;;5.40;99.90;;;;;;5112382;28;20191;-87
2021/11/13 09:05:52;;;;;;;22.23;18.00;;;5.20;99.90;;;;;;5089341;28;20229;-87
2021/11/13 09:08:18;;;;;;;20.63;17.63;;;5.30;99.90;;;;;;5095867;28;20207;-87
2021/11/13 09:10:45;;;;;;;21.30;18.77;;;5.40;99.90;;;;;;5096934;28;20278;-87
2021/11/13 09:13:12;;;;;;;21.40;18.47;;;5.40;99.90;;;;;;5093918;28;20244;-87
2021/11/13 09:15:39;;;;;;;19.87;17.77;;;5.30;99.90;;;;;;5096834;28;21257;-87
2021/11/13 09:18:06;;;;;;;23.47;18.70;;;5.30;99.90;;;;;;5093884;28;20216;-86
2021/11/13 09:20:32;;;;;;;21.50;18.00;;;5.40;99.90;;;;;;5111870;28;20187;-87
2021/11/13 09:22:59;;;;;;;20.97;17.07;;;5.40;99.90;;;;;;5112351;28;20194;-85
2021/11/13 09:25:26;;;;;;;20.40;17.63;;;5.50;99.90;;;;;;5110754;28;20191;-86
2021/11/13 09:27:52;;;;;;;19.43;17.27;;;5.40;99.90;;;;;;5095790;28;20215;-87
2021/11/13 09:30:22;;;;;;;20.40;17.67;;;5.50;99.90;;;;;;5116247;28;20175;-88
2021/11/13 09:32:49;;;;;;;17.97;16.07;;;5.60;99.90;;;;;;5087563;28;20687;-88
2021/11/13 09:35:19;;;;;;;20.30;17.63;;;5.90;99.90;;;;;;5085001;28;20972;-88
2021/11/13 09:37:46;;;;;;;19.60;17.50;;;5.80;99.90;;;;;;5090151;28;20658;-88
2021/11/13 09:40:16;;;;;;;21.40;17.67;;;5.90;99.90;;;;;;5094887;28;20566;-89
2021/11/13 09:42:44;;;;;;;21.03;17.80;;;5.80;99.90;;;;;;5094123;28;20198;-89
2021/11/13 09:45:15;;;;;;;20.60;18.40;;;5.80;99.90;;;;;;5098947;28;20210;-89
2021/11/13 09:47:46;;;;;;;22.93;18.90;;;5.80;99.90;;;;;;5085162;28;20721;-88
2021/11/13 09:50:15;;;;;;;20.40;18.27;;;5.80;99.90;;;;;;5078458;28;20198;-89
2021/11/13 09:52:48;;;;;;;20.83;18.17;;;5.90;99.90;;;;;;5071803;28;20278;-89
2021/11/13 09:55:21;;;;;;;21.07;18.03;;;6.00;99.90;;;;;;5082354;28;20254;-89
2021/11/13 10:08:59;;;;;;;18.37;15.97;;;5.90;99.90;;;;;;5024754;28;20219;-91
2021/11/13 10:11:48;;;;;;;20.07;16.63;;;6.10;99.90;;;;;;5009822;28;20193;-91
2021/11/13 10:14:15;;;;;;;20.27;17.07;;;6.10;99.90;;;;;;5011693;28;20186;-90
2021/11/13 10:16:44;;;;;;;21.57;18.27;;;6.10;99.90;;;;;;5029524;28;20185;-90
2021/11/13 10:19:32;;;;;;;21.07;17.10;;;6.10;99.90;;;;;;5004622;28;20279;-91
2021/11/13 10:22:02;;;;;;;19.07;17.03;;;6.30;99.90;;;;;;5032439;28;20178;-90
2021/11/13 10:25:19;;;;;;;21.70;18.00;;;6.30;99.90;;;;;;5031438;28;20190;-90
2021/11/13 10:28:14;;;;;;;18.63;16.17;;;6.20;99.90;;;;;;5031216;28;20752;-91
2021/11/13 10:31:23;;;;;;;23.07;16.87;;;6.30;99.90;;;;;;5019409;28;20192;-91
2021/11/13 10:33:53;;;;;;;18.73;16.83;;;6.30;99.90;;;;;;5016986;28;20189;-91
2021/11/13 10:36:48;;;;;;;20.53;16.83;;;6.20;99.90;;;;;;5015890;28;20280;-90
2021/11/13 10:39:39;;;;;;;17.60;15.47;;;6.20;99.90;;;;;;4999683;28;20235;-91
2021/11/13 10:42:19;;;;;;;17.70;15.43;;;6.30;99.90;;;;;;5013904;28;20205;-90
2021/11/13 10:45:29;;;;;;;17.77;15.97;;;6.50;99.90;;;;;;5012515;28;20397;-91
2021/11/13 10:48:15;;;;;;;19.67;16.83;;;6.50;99.90;;;;;;4950682;28;20254;-91
2021/11/13 10:50:44;;;;;;;17.87;16.07;;;6.40;99.90;;;;;;5003436;28;20205;-90
2021/11/13 10:53:12;;;;;;;18.47;16.47;;;6.50;99.90;;;;;;5008441;28;20198;-91
2021/11/13 10:56:30;;;;;;;17.37;15.47;;;6.60;99.90;;;;;;5033208;28;20200;-91
2021/11/13 10:59:04;;;;;;;19.70;16.90;;;6.50;99.90;;;;;;4971378;28;20701;-90
2021/11/13 11:01:40;;;;;;;18.23;16.33;;;6.50;99.90;;;;;;5025636;28;20215;-92
2021/11/13 11:04:17;;;;;;;18.17;16.10;;;6.60;99.90;;;;;;4992055;28;20258;-92
2021/11/13 11:06:50;;;;;;;18.10;16.20;;;6.70;99.90;;;;;;5025797;28;20244;-91
2021/11/13 11:09:18;;;;;;;17.73;15.80;;;6.70;99.90;;;;;;5030308;28;20189;-91
2021/11/13 11:11:45;;;;;;;18.77;16.43;;;6.70;99.90;;;;;;5019087;28;20257;-90
2021/11/13 11:14:15;;;;;;;18.87;16.87;;;6.70;99.90;;;;;;5020646;28;20621;-91
2021/11/13 11:16:43;;;;;;;20.97;17.00;;;6.70;99.90;;;;;;5027858;28;20223;-91
2021/11/13 11:19:12;;;;;;;20.23;17.63;;;6.60;99.90;;;;;;4991828;28;20713;-90
2021/11/13 11:22:01;;;;;;;18.73;16.83;;;6.60;99.90;;;;;;5021078;28;20224;-90
2021/11/13 11:24:46;;;;;;;17.63;15.30;;;6.80;99.90;;;;;;5034099;28;20197;-91
2021/11/13 11:27:17;;;;;;;18.90;15.97;;;6.80;99.90;;;;;;5023955;28;20232;-90
2021/11/13 11:29:55;;;;;;;16.57;14.80;;;6.80;99.90;;;;;;5022266;28;20870;-91
2021/11/13 11:32:34;;;;;;;16.77;15.07;;;6.90;99.90;;;;;;5022382;28;20212;-90
2021/11/13 11:35:21;;;;;;;18.57;15.30;;;6.80;99.90;;;;;;5021169;28;20188;-90
2021/11/13 11:38:10;;;;;;;17.07;15.30;;;6.80;99.90;;;;;;5020174;28;20599;-89
2021/11/13 11:40:47;;;;;;;19.07;16.00;;;6.80;99.90;;;;;;5010814;28;20231;-90
2021/11/13 11:43:14;;;;;;;16.93;15.23;;;6.80;99.90;;;;;;5017770;28;20197;-91
2021/11/13 11:45:42;;;;;;;18.13;16.07;;;6.90;99.90;;;;;;5008402;28;20645;-91
2021/11/13 11:48:11;;;;;;;19.80;15.23;;;7.00;99.90;;;;;;5008421;28;20678;-91
2021/11/13 11:50:38;;;;;;;18.00;16.03;;;7.00;99.90;;;;;;5026764;28;20276;-91
2021/11/13 11:53:10;;;;;;;19.63;16.67;;;7.10;99.90;;;;;;5020124;28;20586;-90
2021/11/13 11:55:37;;;;;;;17.67;14.73;;;7.20;99.90;;;;;;5009961;28;20216;-91
2021/11/13 11:58:06;;;;;;;15.73;14.13;;;7.20;99.90;;;;;;5024294;28;20221;-91
2021/11/13 12:00:34;;;;;;;18.33;15.13;;;7.30;99.90;;;;;;5027510;28;20235;-91
2021/11/13 12:03:05;;;;;;;15.67;14.03;;;7.50;99.90;;;;;;4991072;28;20189;-91
2021/11/13 12:05:35;;;;;;;16.57;13.97;;;7.50;99.90;;;;;;5021796;28;20213;-90
2021/11/13 12:08:22;;;;;;;16.77;13.43;;;7.60;99.90;;;;;;4996682;28;20220;-91
2021/11/13 12:10:49;;;;;;;14.83;13.00;;;7.70;99.90;;;;;;5014293;28;20193;-91
2021/11/13 12:13:26;;;;;;;14.53;13.00;;;7.60;99.90;;;;;;5001619;28;20741;-90
2021/11/13 12:16:01;;;;;;;14.80;13.30;;;7.60;99.90;;;;;;4999800;28;20233;-90
2021/11/13 12:18:43;;;;;;;15.17;13.53;;;7.70;99.90;;;;;;5016330;28;20220;-91
2021/11/13 12:21:12;;;;;;;14.57;12.97;;;7.90;99.90;;;;;;5030919;28;20223;-91
2021/11/13 12:23:43;;;;;;;14.37;12.97;;;7.90;99.90;;;;;;5021302;28;20196;-91
2021/11/13 12:26:33;;;;;;;13.67;12.27;;;7.90;99.90;;;;;;5029126;28;20190;-91
2021/11/13 12:29:04;;;;;;;15.30;12.70;;;8.00;99.90;;;;;;5018910;28;20212;-91
2021/11/13 12:31:50;;;;;;;14.67;12.13;;;7.90;99.90;;;;;;5020101;28;20231;-91
2021/11/13 12:34:19;;;;;;;14.83;13.03;;;7.90;99.90;;;;;;4979918;28;20198;-91
2021/11/13 12:37:00;;;;;;;14.47;12.97;;;7.90;99.90;;;;;;5025567;28;20251;-91
2021/11/13 12:39:29;;;;;;;17.10;14.37;;;7.70;99.90;;;;;;5029441;28;20253;-91
2021/11/13 12:42:03;;;;;;;15.43;13.83;;;7.80;99.90;;;;;;4998339;28;20188;-91
2021/11/13 12:44:46;;;;;;;15.77;14.07;;;7.90;99.90;;;;;;5031763;28;20216;-91
2021/11/13 12:54:51;;;;;;;15.63;14.03;;;8.10;99.90;;;;;;5051342;28;20223;-91
2021/11/13 12:57:45;;;;;;;15.90;14.13;;;7.90;99.90;;;;;;5040544;28;20665;-92
2021/11/13 13:00:39;;;;;;;14.80;13.30;;;7.90;99.90;;;;;;5042217;28;20256;-91
2021/11/13 13:03:14;;;;;;;16.00;14.30;;;8.00;99.90;;;;;;5038185;28;20228;-91
2021/11/13 13:05:40;;;;;;;17.10;14.77;;;7.90;99.90;;;;;;5040086;28;20165;-91